createdAt,value
2023-03-31T00:00:53.650Z,1.33
2023-03-31T00:03:24.374Z,1.00
2023-03-31T00:05:59.825Z,1.20
2023-03-31T00:08:30.773Z,1.07
2023-03-31T00:11:01.508Z,1.00
2023-03-31T00:13:29.836Z,1.10
2023-03-31T00:16:02.379Z,1.20
2023-03-31T00:18:30.991Z,1.10
2023-03-31T00:21:09.608Z,1.00
2023-03-31T00:23:36.766Z,0.93
2023-03-31T00:26:05.197Z,1.20
2023-03-31T00:28:32.847Z,1.17
2023-03-31T00:31:03.886Z,0.93
2023-03-31T00:33:31.471Z,1.10
2023-03-31T00:36:02.199Z,1.07
2023-03-31T00:38:30.556Z,0.87
2023-03-31T00:40:58.101Z,1.00
2023-03-31T00:43:29.570Z,0.80
2023-03-31T00:46:15.790Z,0.93
2023-03-31T00:48:51.877Z,1.27
2023-03-31T00:51:22.428Z,1.03
2023-03-31T00:53:59.969Z,0.97
2023-03-31T00:56:32.820Z,1.17
2023-03-31T00:59:04.034Z,1.30
2023-03-31T01:01:31.994Z,1.10
2023-03-31T01:03:59.507Z,1.20
2023-03-31T01:06:31.095Z,1.30
2023-03-31T01:08:58.425Z,1.40
2023-03-31T01:11:28.056Z,1.47
2023-03-31T01:13:56.820Z,1.13
2023-03-31T01:16:24.169Z,1.20
2023-03-31T01:18:51.735Z,1.10
2023-03-31T01:21:30.824Z,1.10
2023-03-31T01:24:16.148Z,1.20
2023-03-31T01:27:22.261Z,1.00
2023-03-31T01:30:07.452Z,0.97
2023-03-31T01:32:56.993Z,0.90
2023-03-31T01:36:03.710Z,1.00
2023-03-31T01:39:01.303Z,0.93
2023-03-31T01:41:58.456Z,1.00
2023-03-31T01:45:08.243Z,1.20
2023-03-31T01:47:46.816Z,0.90
2023-03-31T01:50:36.319Z,0.90
2023-03-31T01:53:42.273Z,1.00
2023-03-31T01:56:31.413Z,0.90
2023-03-31T01:59:15.898Z,1.00
2023-03-31T02:02:03.120Z,1.00
2023-03-31T02:04:59.481Z,1.10
2023-03-31T02:07:39.946Z,0.90
2023-03-31T02:10:10.929Z,1.10
2023-03-31T02:12:41.095Z,0.97
2023-03-31T02:15:11.797Z,0.90
2023-03-31T02:17:42.497Z,1.00
2023-03-31T02:20:13.284Z,1.20
2023-03-31T02:22:46.471Z,1.30
2023-03-31T02:25:19.401Z,1.00
2023-03-31T02:27:53.501Z,1.10
2023-03-31T02:30:21.063Z,1.00
2023-03-31T02:32:48.314Z,1.00
2023-03-31T02:35:21.718Z,1.13
2023-03-31T02:37:50.056Z,1.10
2023-03-31T02:40:22.772Z,1.20
2023-03-31T02:42:49.951Z,0.90
2023-03-31T02:45:35.653Z,1.10
2023-03-31T02:48:03.192Z,1.00
2023-03-31T02:50:35.413Z,1.00
2023-03-31T02:53:22.738Z,1.20
2023-03-31T02:56:12.998Z,1.00
2023-03-31T02:59:07.061Z,1.20
2023-03-31T03:02:09.135Z,1.23
2023-03-31T03:04:52.335Z,1.13
2023-03-31T03:07:38.637Z,1.27
2023-03-31T03:10:28.389Z,1.50
2023-03-31T03:12:58.905Z,1.17
2023-03-31T03:15:40.377Z,1.13
2023-03-31T03:18:08.028Z,0.93
2023-03-31T03:20:36.067Z,1.10
2023-03-31T03:23:03.409Z,1.23
2023-03-31T03:25:32.946Z,1.40
2023-03-31T03:28:00.475Z,1.30
2023-03-31T03:30:27.625Z,1.20
2023-03-31T03:32:56.359Z,1.00
2023-03-31T03:35:23.487Z,1.20
2023-03-31T03:37:50.875Z,1.23
2023-03-31T03:40:18.576Z,1.40
2023-03-31T03:42:45.741Z,1.50
2023-03-31T03:45:13.073Z,1.40
2023-03-31T03:47:40.391Z,1.40
2023-03-31T03:50:08.315Z,1.63
2023-03-31T03:52:35.712Z,1.40
2023-03-31T03:55:03.181Z,1.50
2023-03-31T03:57:30.417Z,1.33
2023-03-31T03:59:57.699Z,1.40
2023-03-31T04:02:27.579Z,1.20
2023-03-31T04:04:55.365Z,1.30
2023-03-31T04:07:22.666Z,1.50
2023-03-31T04:09:49.850Z,1.50
2023-03-31T04:12:17.072Z,1.33
2023-03-31T04:14:47.335Z,1.60
2023-03-31T04:17:16.099Z,1.50
2023-03-31T04:19:43.234Z,1.60
2023-03-31T04:22:11.881Z,1.57
2023-03-31T04:24:39.048Z,1.47
2023-03-31T04:27:07.590Z,1.60
2023-03-31T04:29:37.318Z,1.43
2023-03-31T04:32:04.787Z,1.40
2023-03-31T04:34:37.803Z,1.50
2023-03-31T04:37:05.074Z,1.47
2023-03-31T04:39:32.184Z,1.60
2023-03-31T04:42:00.677Z,1.70
2023-03-31T04:44:27.873Z,1.67
2023-03-31T04:46:55.582Z,1.50
2023-03-31T04:49:22.926Z,1.77
2023-03-31T04:51:50.603Z,1.50
2023-03-31T04:54:17.863Z,1.40
2023-03-31T04:56:45.250Z,1.23
2023-03-31T04:59:12.423Z,1.40
2023-03-31T05:01:39.632Z,1.33
2023-03-31T05:04:07.144Z,1.40
2023-03-31T05:06:34.456Z,1.47
2023-03-31T05:09:01.625Z,1.50
2023-03-31T05:11:29.316Z,1.40
2023-03-31T05:13:56.786Z,1.50
2023-03-31T05:16:23.948Z,1.10
2023-03-31T05:18:51.150Z,1.00
2023-03-31T05:21:21.090Z,1.20
2023-03-31T05:23:49.206Z,1.30
2023-03-31T05:26:19.326Z,1.30
2023-03-31T05:28:46.796Z,1.10
2023-03-31T05:31:14.473Z,1.13
2023-03-31T05:33:42.350Z,1.07
2023-03-31T05:36:15.587Z,1.23
2023-03-31T05:38:43.705Z,1.00
2023-03-31T05:41:12.039Z,1.10
2023-03-31T05:43:39.948Z,1.20
2023-03-31T05:46:10.239Z,1.20
2023-03-31T05:48:38.184Z,1.10
2023-03-31T05:51:05.814Z,1.07
2023-03-31T05:53:33.877Z,1.40
2023-03-31T05:56:03.261Z,1.20
2023-03-31T05:58:31.293Z,1.30
2023-03-31T06:01:06.096Z,0.97
2023-03-31T06:03:35.106Z,1.17
2023-03-31T06:06:03.012Z,1.20
2023-03-31T06:08:30.298Z,1.27
2023-03-31T06:10:58.078Z,1.03
2023-03-31T06:13:25.419Z,1.13
2023-03-31T06:16:00.580Z,0.97
2023-03-31T06:18:29.429Z,1.20
2023-03-31T06:20:57.521Z,1.10
2023-03-31T06:23:25.847Z,1.20
2023-03-31T06:25:54.773Z,1.20
2023-03-31T06:28:22.286Z,1.00
2023-03-31T06:30:49.467Z,0.90
2023-03-31T06:33:16.761Z,0.80
2023-03-31T06:35:43.928Z,1.00
2023-03-31T06:38:11.333Z,1.00
2023-03-31T06:40:38.572Z,1.00
2023-03-31T06:43:06.062Z,0.83
2023-03-31T06:45:33.274Z,0.93
2023-03-31T06:48:00.435Z,0.90
2023-03-31T06:50:27.755Z,0.80
2023-03-31T06:52:55.532Z,0.80
2023-03-31T06:55:22.674Z,0.80
2023-03-31T06:57:50.038Z,0.83
2023-03-31T07:00:19.095Z,0.60
2023-03-31T07:02:47.508Z,0.83
2023-03-31T07:05:14.800Z,0.90
2023-03-31T07:07:43.325Z,0.70
2023-03-31T07:10:12.285Z,0.80
2023-03-31T07:12:39.428Z,0.80
2023-03-31T07:15:07.347Z,0.83
2023-03-31T07:17:34.722Z,0.80
2023-03-31T07:20:01.959Z,0.70
2023-03-31T07:22:29.189Z,0.83
2023-03-31T07:24:56.830Z,0.70
2023-03-31T07:27:26.237Z,0.80
2023-03-31T07:29:53.602Z,0.80
2023-03-31T07:32:22.427Z,0.87
2023-03-31T07:34:49.679Z,0.70
2023-03-31T07:37:16.885Z,0.70
2023-03-31T07:39:44.180Z,0.73
2023-03-31T07:42:11.344Z,0.80
2023-03-31T07:44:40.772Z,0.90
2023-03-31T07:47:08.165Z,0.53
2023-03-31T07:49:36.381Z,0.70
2023-03-31T07:52:03.746Z,0.60
2023-03-31T07:54:30.902Z,0.70
2023-03-31T07:57:01.849Z,0.60
2023-03-31T07:59:30.529Z,0.65
2023-03-31T08:01:57.707Z,0.63
2023-03-31T08:04:25.371Z,0.60
2023-03-31T08:06:52.724Z,0.50
2023-03-31T08:09:22.052Z,0.70
2023-03-31T08:11:49.519Z,0.80
2023-03-31T08:14:21.933Z,0.70
2023-03-31T08:16:55.546Z,0.80
2023-03-31T08:19:22.775Z,0.70
2023-03-31T08:21:51.620Z,0.80
2023-03-31T08:24:19.430Z,0.70
2023-03-31T08:26:46.939Z,0.90
2023-03-31T08:29:14.444Z,0.60
2023-03-31T08:31:41.869Z,0.63
2023-03-31T08:34:09.065Z,0.80
2023-03-31T08:36:36.328Z,0.70
2023-03-31T08:39:04.846Z,0.70
2023-03-31T08:41:44.088Z,0.60
2023-03-31T08:44:37.426Z,0.57
2023-03-31T08:47:07.795Z,0.70
2023-03-31T08:49:54.478Z,0.70
2023-03-31T08:52:31.774Z,0.70
2023-03-31T08:55:06.853Z,0.60
2023-03-31T08:58:04.196Z,0.70
2023-03-31T09:00:41.368Z,0.70
2023-03-31T09:03:34.581Z,0.50
2023-03-31T09:06:14.073Z,0.50
2023-03-31T09:08:45.002Z,0.70
2023-03-31T09:11:35.273Z,0.65
2023-03-31T09:14:32.559Z,0.60
2023-03-31T09:17:25.670Z,0.70
2023-03-31T09:20:10.114Z,0.60
2023-03-31T09:22:44.218Z,0.60
2023-03-31T09:25:34.354Z,0.80
2023-03-31T09:28:04.905Z,0.60
2023-03-31T09:30:37.036Z,0.67
2023-03-31T09:33:32.220Z,0.70
2023-03-31T09:36:00.540Z,0.60
2023-03-31T09:38:29.903Z,0.60
2023-03-31T09:41:02.704Z,0.70
2023-03-31T09:43:35.253Z,0.50
2023-03-31T09:46:09.602Z,0.70
2023-03-31T09:48:39.214Z,0.47
2023-03-31T09:51:14.721Z,0.50
2023-03-31T09:53:53.520Z,0.67
2023-03-31T09:56:44.476Z,0.50
2023-03-31T09:59:37.647Z,0.60
2023-03-31T10:02:35.764Z,0.60
2023-03-31T10:05:05.384Z,0.57
2023-03-31T10:07:34.137Z,0.53
2023-03-31T10:10:02.352Z,0.60
2023-03-31T10:12:32.060Z,0.60
2023-03-31T10:15:23.037Z,0.60
2023-03-31T10:20:37.810Z,0.70
2023-03-31T10:23:28.706Z,0.50
2023-03-31T10:25:56.240Z,0.50
2023-03-31T10:28:23.839Z,0.50
2023-03-31T10:31:04.560Z,0.60
2023-03-31T10:33:35.039Z,0.57
2023-03-31T10:36:15.839Z,0.50
2023-03-31T10:38:46.175Z,0.50
2023-03-31T10:41:26.353Z,0.50
2023-03-31T10:43:56.410Z,0.30
2023-03-31T10:46:44.224Z,0.70
2023-03-31T10:49:29.537Z,0.50
2023-03-31T10:51:59.658Z,0.57
2023-03-31T10:54:26.980Z,0.50
2023-03-31T10:57:01.744Z,0.57
2023-03-31T10:59:37.741Z,0.53
2023-03-31T11:02:21.770Z,0.53
2023-03-31T11:05:22.738Z,0.50
2023-03-31T11:08:20.081Z,0.50
2023-03-31T11:11:27.867Z,0.50
2023-03-31T11:14:15.339Z,0.70
2023-03-31T11:16:59.701Z,0.60
2023-03-31T11:19:38.870Z,0.50
2023-03-31T11:22:19.338Z,0.70
2023-03-31T11:25:01.377Z,0.60
2023-03-31T11:27:57.666Z,0.60
2023-03-31T11:30:48.047Z,0.63
2023-03-31T11:33:40.176Z,0.70
2023-03-31T11:36:37.013Z,0.50
2023-03-31T11:39:10.457Z,0.60
2023-03-31T11:41:43.894Z,0.50
2023-03-31T11:44:16.694Z,0.57
2023-03-31T11:46:54.656Z,0.50
2023-03-31T11:49:27.574Z,0.50
2023-03-31T11:52:01.402Z,0.60
2023-03-31T11:54:53.131Z,0.40
2023-03-31T11:57:24.285Z,0.50
2023-03-31T11:59:59.768Z,0.50
2023-03-31T12:02:48.711Z,0.63
2023-03-31T12:05:17.223Z,0.40
2023-03-31T12:08:01.713Z,0.57
2023-03-31T12:10:37.340Z,0.40
2023-03-31T12:13:33.420Z,0.50
2023-03-31T12:16:07.123Z,0.50
2023-03-31T12:19:02.601Z,0.47
2023-03-31T12:21:31.623Z,0.50
2023-03-31T12:23:58.781Z,0.50
2023-03-31T12:26:48.486Z,0.40
2023-03-31T12:29:59.332Z,0.40
2023-03-31T12:32:34.103Z,0.43
2023-03-31T12:35:14.830Z,0.40
2023-03-31T12:37:58.964Z,0.47
2023-03-31T12:40:43.270Z,0.40
2023-03-31T12:43:21.452Z,0.50
2023-03-31T12:46:06.694Z,0.50
2023-03-31T12:48:54.880Z,0.50
2023-03-31T12:51:31.688Z,0.47
2023-03-31T12:54:17.597Z,0.60
2023-03-31T12:57:11.323Z,0.40
2023-03-31T12:59:41.749Z,0.57
2023-03-31T13:02:17.842Z,0.40
2023-03-31T13:04:45.211Z,0.50
2023-03-31T13:07:28.302Z,0.60
2023-03-31T13:09:58.154Z,0.80
2023-03-31T13:12:28.363Z,0.80
2023-03-31T13:15:00.406Z,0.70
2023-03-31T13:17:27.858Z,0.50
2023-03-31T13:19:56.828Z,0.60
2023-03-31T13:22:38.189Z,0.50
2023-03-31T13:25:30.261Z,0.40
2023-03-31T13:28:04.232Z,0.70
2023-03-31T13:30:37.422Z,0.70
2023-03-31T13:33:18.361Z,0.57
2023-03-31T13:35:54.412Z,0.70
2023-03-31T13:38:54.851Z,0.47
2023-03-31T13:41:34.451Z,0.63
2023-03-31T13:44:38.593Z,0.60
2023-03-31T13:47:23.973Z,0.47
2023-03-31T13:50:12.490Z,0.57
2023-03-31T13:53:12.398Z,0.60
2023-03-31T13:56:19.922Z,0.40
2023-03-31T13:58:47.310Z,0.80
2023-03-31T14:01:29.203Z,0.50
2023-03-31T14:04:16.565Z,0.43
2023-03-31T14:06:58.295Z,0.50
2023-03-31T14:09:47.132Z,0.50
2023-03-31T14:12:34.769Z,0.50
2023-03-31T14:15:05.986Z,0.50
2023-03-31T14:17:41.407Z,0.40
2023-03-31T14:20:35.426Z,0.50
2023-03-31T14:23:14.557Z,0.60
2023-03-31T14:26:14.617Z,0.60
2023-03-31T14:29:01.365Z,0.50
2023-03-31T14:31:35.801Z,0.40
2023-03-31T14:34:40.158Z,0.50
2023-03-31T14:37:13.803Z,0.50
2023-03-31T14:39:54.871Z,0.70
2023-03-31T14:42:27.155Z,0.40
2023-03-31T14:45:01.912Z,0.70
2023-03-31T14:47:29.614Z,1.77
2023-03-31T14:50:03.601Z,1.60
2023-03-31T14:52:34.047Z,1.27
2023-03-31T14:55:01.483Z,0.93
2023-03-31T14:57:34.514Z,0.70
2023-03-31T15:00:08.518Z,0.60
2023-03-31T15:02:40.891Z,0.53
2023-03-31T15:05:15.027Z,0.60
2023-03-31T15:07:42.286Z,0.50
2023-03-31T15:10:20.140Z,0.87
2023-03-31T15:12:48.769Z,1.40
2023-03-31T15:15:17.682Z,1.13
2023-03-31T15:17:48.264Z,1.43
2023-03-31T15:20:29.578Z,1.00
2023-03-31T15:22:58.291Z,1.10
2023-03-31T15:25:34.880Z,0.90
2023-03-31T15:28:12.223Z,0.50
2023-03-31T15:30:40.574Z,0.80
2023-03-31T15:33:19.743Z,0.97
2023-03-31T15:35:48.748Z,1.03
2023-03-31T15:38:18.721Z,0.80
2023-03-31T15:40:53.169Z,0.80
2023-03-31T15:43:54.078Z,0.70
2023-03-31T15:46:46.232Z,0.50
2023-03-31T15:49:26.144Z,0.40
2023-03-31T15:51:57.187Z,0.43
2023-03-31T15:54:34.725Z,0.40
2023-03-31T15:57:07.296Z,0.40
2023-03-31T15:59:55.944Z,0.53
2023-03-31T16:02:27.727Z,0.50
2023-03-31T16:04:59.699Z,0.60
2023-03-31T16:07:32.074Z,0.70
2023-03-31T16:10:02.520Z,0.80
2023-03-31T16:13:03.635Z,0.60
2023-03-31T16:15:41.061Z,0.50
2023-03-31T16:18:26.373Z,0.60
2023-03-31T16:21:02.019Z,0.50
2023-03-31T16:23:33.626Z,0.47
2023-03-31T16:26:02.289Z,0.43
2023-03-31T16:28:34.161Z,0.60
2023-03-31T16:31:02.169Z,0.50
2023-03-31T16:33:31.758Z,0.67
2023-03-31T16:36:02.616Z,0.50
2023-03-31T16:38:30.470Z,0.60
2023-03-31T16:40:58.815Z,0.60
2023-03-31T16:43:28.787Z,0.53
2023-03-31T16:45:58.928Z,0.70
2023-03-31T16:48:28.867Z,0.60
2023-03-31T16:50:58.102Z,0.50
2023-03-31T16:53:28.444Z,0.70
2023-03-31T16:55:57.161Z,0.70
2023-03-31T16:58:25.382Z,0.60
2023-03-31T17:00:53.593Z,0.63
2023-03-31T17:03:22.141Z,0.60
2023-03-31T17:05:53.216Z,0.60
2023-03-31T17:08:22.490Z,0.60
2023-03-31T17:11:09.275Z,0.60
2023-03-31T17:13:37.820Z,0.60
2023-03-31T17:16:18.623Z,0.60
2023-03-31T17:18:51.553Z,0.90
2023-03-31T17:21:22.067Z,0.60
2023-03-31T17:23:49.916Z,0.63
2023-03-31T17:26:18.283Z,0.70
2023-03-31T17:28:46.546Z,0.70
2023-03-31T17:31:19.648Z,0.73
2023-03-31T17:33:47.594Z,0.70
2023-03-31T17:36:15.752Z,0.77
2023-03-31T17:38:43.818Z,0.60
2023-03-31T17:41:13.118Z,0.60
2023-03-31T17:43:40.661Z,0.67
2023-03-31T17:46:13.262Z,0.50
2023-03-31T17:48:41.721Z,0.53
2023-03-31T17:51:14.072Z,0.57
2023-03-31T17:53:43.354Z,0.60
2023-03-31T17:56:11.093Z,0.67
2023-03-31T17:58:38.557Z,0.70
2023-03-31T18:01:07.946Z,0.50
2023-03-31T18:03:36.461Z,0.70
2023-03-31T18:06:08.431Z,0.80
2023-03-31T18:08:36.569Z,0.50
2023-03-31T18:11:06.999Z,0.83
2023-03-31T18:13:36.594Z,1.03
2023-03-31T18:16:05.597Z,1.20
2023-03-31T18:18:33.704Z,1.17
2023-03-31T18:21:07.092Z,2.17
2023-03-31T18:23:38.633Z,1.47
2023-03-31T18:26:07.499Z,1.20
2023-03-31T18:28:35.284Z,0.90
2023-03-31T18:31:05.782Z,0.90
2023-03-31T18:33:36.264Z,0.60
2023-03-31T18:36:04.165Z,0.80
2023-03-31T18:38:34.920Z,0.70
2023-03-31T18:41:04.883Z,0.50
2023-03-31T18:43:33.555Z,0.60
2023-03-31T18:46:05.111Z,0.70
2023-03-31T18:48:39.536Z,0.70
2023-03-31T18:51:10.686Z,0.50
2023-03-31T18:53:39.410Z,0.80
2023-03-31T18:56:08.324Z,0.60
2023-03-31T18:58:38.502Z,0.93
2023-03-31T19:01:06.486Z,0.80
2023-03-31T19:03:34.354Z,0.70
2023-03-31T19:06:04.789Z,0.70
2023-03-31T19:08:32.826Z,0.83
2023-03-31T19:11:17.200Z,0.90
2023-03-31T19:13:45.300Z,0.83
2023-03-31T19:16:15.775Z,0.90
2023-03-31T19:18:46.220Z,1.00
2023-03-31T19:21:14.759Z,0.80
2023-03-31T19:23:42.219Z,0.80
2023-03-31T19:26:14.582Z,0.70
2023-03-31T19:28:43.373Z,0.83
2023-03-31T19:31:13.018Z,0.93
2023-03-31T19:33:41.777Z,0.70
2023-03-31T19:36:10.638Z,0.87
2023-03-31T19:38:38.235Z,0.70
2023-03-31T19:41:07.111Z,0.70
2023-03-31T19:43:35.230Z,0.93
2023-03-31T19:46:04.149Z,1.00
2023-03-31T19:48:34.259Z,0.80
2023-03-31T19:51:06.429Z,0.83
2023-03-31T19:53:36.883Z,0.80
2023-03-31T19:56:11.512Z,0.80
2023-03-31T19:58:41.738Z,1.30
2023-03-31T20:01:19.372Z,0.87
2023-03-31T20:03:47.889Z,1.10
2023-03-31T20:06:15.956Z,0.70
2023-03-31T20:08:44.337Z,0.77
2023-03-31T20:11:14.532Z,1.00
2023-03-31T20:13:43.973Z,0.80
2023-03-31T20:16:14.830Z,1.17
2023-03-31T20:18:43.850Z,0.60
2023-03-31T20:21:14.811Z,0.70
2023-03-31T20:23:44.047Z,0.70
2023-03-31T20:26:13.890Z,0.63
2023-03-31T20:28:41.208Z,0.70
2023-03-31T20:31:14.646Z,0.73
2023-03-31T20:33:43.427Z,0.67
2023-03-31T20:36:18.293Z,1.07
2023-03-31T20:38:47.726Z,0.80
2023-03-31T20:41:16.099Z,0.60
2023-03-31T20:43:43.544Z,1.07
2023-03-31T20:46:11.792Z,0.80
2023-03-31T20:48:40.638Z,0.90
2023-03-31T20:51:11.177Z,1.03
2023-03-31T20:53:44.760Z,1.10
2023-03-31T20:56:14.483Z,0.80
2023-03-31T20:58:44.279Z,0.90
2023-03-31T21:01:12.807Z,1.13
2023-03-31T21:03:40.522Z,0.70
2023-03-31T21:06:11.322Z,0.90
2023-03-31T21:08:39.625Z,1.00
2023-03-31T21:11:07.421Z,0.87
2023-03-31T21:13:34.971Z,1.00
2023-03-31T21:16:04.623Z,1.00
2023-03-31T21:18:34.189Z,1.00
2023-03-31T21:21:04.341Z,0.90
2023-03-31T21:23:31.626Z,1.00
2023-03-31T21:26:01.274Z,1.10
2023-03-31T21:28:34.058Z,1.00
2023-03-31T21:31:25.579Z,1.07
2023-03-31T21:33:53.718Z,1.03
2023-03-31T21:36:23.155Z,1.13
2023-03-31T21:38:52.901Z,1.20
2023-03-31T21:41:26.132Z,1.20
2023-03-31T21:43:54.566Z,0.80
2023-03-31T21:46:26.155Z,1.20
2023-03-31T21:48:54.076Z,1.07
2023-03-31T21:51:22.424Z,1.13
2023-03-31T21:53:51.531Z,1.30
2023-03-31T21:56:18.971Z,1.47
2023-03-31T21:58:46.486Z,1.30
2023-03-31T22:01:14.257Z,1.53
2023-03-31T22:03:42.548Z,1.10
2023-03-31T22:06:10.484Z,1.30
2023-03-31T22:08:39.064Z,1.40
2023-03-31T22:11:08.765Z,1.40
2023-03-31T22:13:36.895Z,1.47
2023-03-31T22:16:05.589Z,1.10
2023-03-31T22:18:33.069Z,1.20
2023-03-31T22:21:02.550Z,1.37
2023-03-31T22:23:29.829Z,1.07
2023-03-31T22:25:57.043Z,1.27
2023-03-31T22:28:24.316Z,1.13
2023-03-31T22:30:51.419Z,1.20
2023-03-31T22:33:18.695Z,1.27
2023-03-31T22:35:45.881Z,1.50
2023-03-31T22:38:15.529Z,1.50
2023-03-31T22:40:42.856Z,1.50
2023-03-31T22:43:10.277Z,1.20
2023-03-31T22:45:40.418Z,1.30
2023-03-31T22:48:09.913Z,1.40
2023-03-31T22:50:37.396Z,1.40
2023-03-31T22:53:04.980Z,1.50
2023-03-31T22:55:32.227Z,1.40
2023-03-31T22:57:59.637Z,1.30
2023-03-31T23:00:27.326Z,1.63
2023-03-31T23:02:54.845Z,1.30
2023-03-31T23:05:24.428Z,1.60
2023-03-31T23:07:51.924Z,1.27
2023-03-31T23:10:19.477Z,1.33
2023-03-31T23:12:46.603Z,1.40
2023-03-31T23:15:13.995Z,1.40
2023-03-31T23:17:41.137Z,1.10
2023-03-31T23:20:08.707Z,1.30
2023-03-31T23:22:36.658Z,1.33
2023-03-31T23:25:04.539Z,1.30
2023-03-31T23:27:31.714Z,1.50
2023-03-31T23:29:59.075Z,1.60
2023-03-31T23:32:26.280Z,1.40
2023-03-31T23:34:53.568Z,1.30
2023-03-31T23:37:20.743Z,1.50
2023-03-31T23:39:47.940Z,1.40
2023-03-31T23:42:19.790Z,1.27
2023-03-31T23:44:47.561Z,1.60
2023-03-31T23:47:14.742Z,1.60
2023-03-31T23:49:42.278Z,1.10
2023-03-31T23:52:09.374Z,1.60
2023-03-31T23:54:36.778Z,1.60
2023-03-31T23:57:04.305Z,1.50
2023-03-31T23:59:31.771Z,1.27
